Time;durP1;ratioP1;P1;durP2;ratioP2;P2;SDS_P1;SDS_P2;PMS_P1;PMS_P2;Temp;Humidity;BMP_temperature;BMP_pressure;BME280_temperature;BME280_humidity;BME280_pressure;Samples;Min_cycle;Max_cycle;Signal;HPM_P1;HPM_P2
2022/05/04 00:00:34;;;;;;;;;30.50;24.50;;;;;15.89;51.66;101711.22;2402641;28;46391;-86
2022/05/04 00:01:44;;;;;;;;;32.50;26.75;;;;;15.85;51.73;101710.50;2392578;28;45164;-86
2022/05/04 00:02:55;;;;;;;;;34.00;24.50;;;;;15.82;51.71;101710.63;2389067;28;46301;-87
2022/05/04 00:04:06;;;;;;;;;30.50;25.50;;;;;15.80;51.95;101716.00;2395634;28;45251;-86
2022/05/04 00:05:16;;;;;;;;;29.75;23.75;;;;;15.75;51.82;101705.53;2392541;28;48027;-86
2022/05/04 00:06:27;;;;;;;;;28.50;27.00;;;;;15.75;52.17;101715.31;2392534;28;45347;-87
2022/05/04 00:07:37;;;;;;;;;33.50;26.25;;;;;15.73;52.10;101704.75;2394615;28;45533;-86
2022/05/04 00:08:48;;;;;;;;;29.00;21.75;;;;;15.71;52.12;101698.66;2398666;28;45456;-87
2022/05/04 00:09:59;;;;;;;;;22.25;21.75;;;;;15.72;52.19;101700.38;2383483;28;48414;-87
2022/05/04 00:11:09;;;;;;;;;26.50;24.00;;;;;15.71;52.12;101701.31;2383194;28;45244;-87
2022/05/04 00:12:20;;;;;;;;;26.00;23.50;;;;;15.74;51.78;101695.03;2391218;28;48202;-86
2022/05/04 00:13:34;;;;;;;;;27.25;21.25;;;;;15.77;52.22;101707.28;2392140;28;44833;-87
2022/05/04 00:14:44;;;;;;;;;26.75;22.50;;;;;15.79;52.13;101710.75;2386243;28;48228;-87
2022/05/04 00:15:54;;;;;;;;;33.50;25.00;;;;;15.82;52.18;101700.03;2385187;28;45248;-86
2022/05/04 00:17:05;;;;;;;;;29.25;26.25;;;;;15.81;51.81;101695.63;2395062;28;45603;-86
2022/05/04 00:18:15;;;;;;;;;31.75;28.75;;;;;15.80;51.88;101693.91;2401562;28;45223;-86
2022/05/04 00:19:26;;;;;;;;;28.25;23.00;;;;;15.82;52.09;101700.03;2385303;28;48124;-85
2022/05/04 00:20:37;;;;;;;;;31.75;25.50;;;;;15.82;52.26;101692.06;2394693;28;45397;-85
2022/05/04 00:21:47;;;;;;;;;25.25;23.00;;;;;15.83;51.95;101699.06;2396692;28;46128;-85
2022/05/04 00:22:57;;;;;;;;;26.50;21.50;;;;;15.83;52.16;101696.44;2393278;28;44624;-84
2022/05/04 00:24:08;;;;;;;;;32.00;26.00;;;;;15.82;51.88;101689.41;2383037;28;47004;-84
2022/05/04 00:25:18;;;;;;;;;29.75;25.00;;;;;15.81;52.02;101688.53;2381513;28;44704;-83
2022/05/04 00:26:28;;;;;;;;;32.25;25.50;;;;;15.79;52.08;101690.41;2377980;28;47182;-84
2022/05/04 00:27:39;;;;;;;;;29.50;25.25;;;;;15.77;52.17;101688.75;2383140;28;45303;-85
2022/05/04 00:28:49;;;;;;;;;35.00;28.75;;;;;15.76;52.18;101690.50;2381266;28;48037;-85
2022/05/04 00:30:00;;;;;;;;;37.50;25.25;;;;;15.73;52.34;101690.63;2384684;28;44799;-85
2022/05/04 00:31:10;;;;;;;;;31.00;26.50;;;;;15.71;52.24;101687.19;2395212;28;45363;-85
2022/05/04 00:32:21;;;;;;;;;29.75;26.25;;;;;15.69;52.29;101684.59;2402288;28;45287;-84
2022/05/04 00:33:31;;;;;;;;;31.75;28.75;;;;;15.69;52.33;101687.25;2406531;28;47197;-84
2022/05/04 00:34:42;;;;;;;;;29.75;27.25;;;;;15.67;52.26;101682.94;2404782;28;44633;-86
2022/05/04 00:35:53;;;;;;;;;33.25;27.00;;;;;15.64;52.35;101687.44;2399190;28;45360;-85
2022/05/04 00:37:03;;;;;;;;;28.75;25.25;;;;;15.62;52.24;101686.63;2393300;28;45176;-85
2022/05/04 00:38:14;;;;;;;;;26.25;22.50;;;;;15.61;52.55;101686.69;2395489;28;46368;-84
2022/05/04 00:39:24;;;;;;;;;32.75;26.50;;;;;15.60;52.28;101679.69;2402677;28;45204;-85
2022/05/04 00:40:34;;;;;;;;;35.00;30.25;;;;;15.61;52.42;101686.69;2400340;28;45160;-84
2022/05/04 00:41:45;;;;;;;;;35.00;28.75;;;;;15.59;52.51;101683.22;2397183;28;45259;-85
2022/05/04 00:42:55;;;;;;;;;39.00;30.00;;;;;15.58;52.50;101687.66;2393088;28;45296;-85
2022/05/04 00:44:05;;;;;;;;;33.25;28.25;;;;;15.57;52.41;101679.78;2390454;28;44642;-85
2022/05/04 00:45:16;;;;;;;;;31.50;25.50;;;;;15.56;52.24;101689.50;2395008;28;45410;-84
2022/05/04 00:46:26;;;;;;;;;30.50;18.75;;;;;15.52;52.65;101678.19;2401518;28;45310;-84
2022/05/04 00:47:37;;;;;;;;;21.00;17.50;;;;;15.48;52.81;101673.91;2401969;28;45452;-84
2022/05/04 00:48:47;;;;;;;;;28.75;25.75;;;;;15.50;52.59;101676.53;2395182;28;45187;-82
2022/05/04 00:50:08;;;;;;;;;37.25;29.00;;;;;15.49;52.59;101678.31;2392969;28;45490;-84
2022/05/04 00:51:19;;;;;;;;;33.00;29.00;;;;;15.46;52.82;101675.75;2393260;28;45368;-84
2022/05/04 00:52:30;;;;;;;;;29.00;23.50;;;;;15.43;52.73;101662.66;2392964;28;45443;-83
2022/05/04 00:53:42;;;;;;;;;31.00;24.75;;;;;15.43;52.78;101669.75;2399120;28;45485;-86
2022/05/04 00:54:52;;;;;;;;;27.00;22.50;;;;;15.43;53.03;101670.59;2402546;28;46520;-93
2022/05/04 00:56:04;;;;;;;;;30.75;26.50;;;;;15.44;52.80;101677.59;2402976;28;45243;-92
2022/05/04 00:57:17;;;;;;;;;35.50;28.25;;;;;15.43;53.16;101675.91;2393742;28;46631;-84
2022/05/04 00:59:59;;;;;;;;;25.00;22.75;;;;;15.44;52.81;101680.25;2392727;28;45681;-85
2022/05/04 01:01:09;;;;;;;;;29.00;26.50;;;;;15.46;52.87;101674.94;2392857;28;44718;-85
2022/05/04 01:02:19;;;;;;;;;28.00;24.50;;;;;15.44;52.89;101674.97;2392627;28;45449;-85
2022/05/04 01:03:30;;;;;;;;;31.00;26.00;;;;;15.46;52.95;101685.53;2393133;28;44677;-85
2022/05/04 01:04:40;;;;;;;;;30.75;27.00;;;;;15.44;52.73;101674.97;2391646;28;47361;-85
2022/05/04 01:05:51;;;;;;;;;39.75;30.25;;;;;15.41;53.01;101672.41;2395151;28;44781;-85
2022/05/04 01:07:01;;;;;;;;;34.00;26.50;;;;;15.43;52.79;101680.34;2392139;28;48400;-86
2022/05/04 01:08:12;;;;;;;;;36.25;27.25;;;;;15.41;52.95;101683.03;2394528;28;44613;-85
2022/05/04 01:09:22;;;;;;;;;31.50;28.25;;;;;15.41;52.83;101680.38;2402243;28;45541;-85
2022/05/04 01:10:33;;;;;;;;;37.50;29.25;;;;;15.41;52.93;101677.72;2402255;28;44576;-85
2022/05/04 01:11:43;;;;;;;;;34.50;26.75;;;;;15.40;53.15;101678.66;2393680;28;46938;-85
2022/05/04 01:12:54;;;;;;;;;33.75;29.50;;;;;15.39;53.04;101676.91;2387256;28;45248;-85
2022/05/04 01:14:07;;;;;;;;;31.00;27.00;;;;;15.38;53.17;101681.34;2393748;28;47186;-86
2022/05/04 01:15:19;;;;;;;;;30.75;23.50;;;;;15.38;53.12;101683.16;2394772;28;45310;-82
2022/05/04 01:16:31;;;;;;;;;35.25;28.00;;;;;15.38;53.04;101675.22;2394314;28;46394;-83
2022/05/04 01:17:41;;;;;;;;;34.50;28.25;;;;;15.37;53.31;101673.47;2402192;28;45221;-83
2022/05/04 01:18:52;;;;;;;;;34.50;30.75;;;;;15.37;53.19;101671.69;2396686;28;45751;-83
2022/05/04 01:20:02;;;;;;;;;37.50;29.00;;;;;15.37;53.04;101668.19;2394702;28;45140;-83
2022/05/04 01:21:13;;;;;;;;;20.25;19.25;;;;;15.37;53.13;101673.47;2394427;28;45404;-82
2022/05/04 01:22:24;;;;;;;;;22.50;21.50;;;;;15.38;53.01;101669.91;2384563;28;45229;-83
2022/05/04 01:23:35;;;;;;;;;36.25;30.00;;;;;15.36;53.11;101674.41;2387553;28;47117;-84
2022/05/04 01:24:45;;;;;;;;;30.50;24.00;;;;;15.34;53.19;101674.44;2393142;28;44612;-83
2022/05/04 01:25:56;;;;;;;;;30.00;25.25;;;;;15.36;52.94;101677.06;2386901;28;45195;-83
2022/05/04 01:27:11;;;;;;;;;35.25;28.00;;;;;15.35;53.35;101677.97;2394470;28;45482;-84
2022/05/04 01:28:22;;;;;;;;;34.75;26.50;;;;;15.34;53.04;101676.22;2395345;28;45269;-83
2022/05/04 01:29:32;;;;;;;;;33.75;29.00;;;;;15.33;53.13;101671.88;2397529;28;44747;-84
2022/05/04 01:30:42;;;;;;;;;37.75;30.75;;;;;15.34;52.99;101673.59;2393645;28;48102;-83
2022/05/04 01:31:53;;;;;;;;;28.50;23.50;;;;;15.35;53.15;101681.50;2391757;28;44589;-83
2022/05/04 01:33:03;;;;;;;;;33.00;27.75;;;;;15.35;53.24;101677.97;2397205;28;46417;-85
2022/05/04 01:34:14;;;;;;;;;33.50;28.75;;;;;15.34;53.12;101676.22;2412335;28;45192;-83
2022/05/04 01:35:24;;;;;;;;;30.00;26.00;;;;;15.30;53.15;101676.38;2384269;28;47033;-83
2022/05/04 01:36:34;;;;;;;;;30.75;28.25;;;;;15.27;53.44;101676.47;2377642;28;45173;-83
2022/05/04 01:37:45;;;;;;;;;33.00;28.50;;;;;15.27;53.35;101679.13;2387033;28;45380;-83
2022/05/04 01:38:55;;;;;;;;;33.00;26.75;;;;;15.22;52.95;101678.44;2400459;28;45254;-82
2022/05/04 01:40:06;;;;;;;;;34.50;30.50;;;;;15.22;53.23;101689.03;2402924;28;47051;-82
2022/05/04 01:42:46;;;;;;;;;30.75;29.00;;;;;15.22;53.38;101680.22;2403685;28;45724;-82
2022/05/04 01:43:56;;;;;;;;;37.00;32.50;;;;;15.22;53.57;101683.72;2403837;28;44829;-83
2022/05/04 01:45:08;;;;;;;;;37.25;32.00;;;;;15.24;53.29;101681.88;2403686;28;45377;-83
2022/05/04 01:46:19;;;;;;;;;35.25;27.00;;;;;15.23;53.33;101682.81;2384089;28;45438;-83
2022/05/04 01:47:30;;;;;;;;;32.25;29.75;;;;;15.25;53.40;101688.06;2386843;28;45532;-82
2022/05/04 01:48:40;;;;;;;;;34.50;29.25;;;;;15.21;53.08;101679.34;2385581;28;44653;-83
2022/05/04 01:49:51;;;;;;;;;35.50;27.50;;;;;15.19;53.43;101676.75;2393782;28;46155;-83
2022/05/04 01:51:01;;;;;;;;;34.50;31.25;;;;;15.19;53.33;101678.53;2394380;28;45441;-87
2022/05/04 01:52:11;;;;;;;;;38.75;32.00;;;;;15.18;53.63;101684.78;2394140;28;45387;-87
2022/05/04 01:53:22;;;;;;;;;33.25;26.25;;;;;15.19;53.69;101683.84;2394349;28;45257;-87
2022/05/04 01:54:32;;;;;;;;;24.25;21.50;;;;;15.17;53.55;101681.25;2402413;28;46218;-87
2022/05/04 01:55:45;;;;;;;;;33.50;29.75;;;;;15.15;53.63;101675.16;2399088;28;44573;-88
2022/05/04 01:56:55;;;;;;;;;35.75;33.00;;;;;15.15;53.53;101674.28;2394111;28;46776;-89
2022/05/04 01:58:06;;;;;;;;;39.75;31.75;;;;;15.16;53.92;101679.53;2394283;28;45207;-87
2022/05/04 01:59:16;;;;;;;;;29.50;24.75;;;;;15.16;53.36;101678.69;2384039;28;47282;-88
2022/05/04 02:00:27;;;;;;;;;30.75;27.50;;;;;15.13;53.47;101681.44;2386928;28;45327;-88
2022/05/04 02:01:41;;;;;;;;;39.00;29.00;;;;;15.13;53.74;101681.44;2393803;28;45318;-87
2022/05/04 02:02:52;;;;;;;;;36.00;28.75;;;;;15.07;53.48;101672.78;2388094;28;44594;-88
2022/05/04 02:04:03;;;;;;;;;28.25;27.25;;;;;15.06;53.79;101675.50;2393824;28;48219;-87
2022/05/04 02:05:14;;;;;;;;;33.75;30.25;;;;;15.05;53.78;101677.28;2402572;28;45403;-87
2022/05/04 02:06:24;;;;;;;;;41.00;31.75;;;;;15.07;54.02;101678.09;2399637;28;47888;-88
2022/05/04 02:07:35;;;;;;;;;37.50;30.75;;;;;15.05;53.94;101679.06;2400402;28;45199;-88
2022/05/04 02:08:46;;;;;;;;;37.75;27.25;;;;;15.06;53.50;101683.47;2391422;28;46879;-88
2022/05/04 02:09:56;;;;;;;;;37.00;29.00;;;;;15.05;54.11;101687.00;2383959;28;45224;-88
2022/05/04 02:11:08;;;;;;;;;38.00;31.50;;;;;15.04;54.10;101683.50;2386473;28;47086;-87
2022/05/04 02:12:18;;;;;;;;;43.50;32.50;;;;;15.06;53.88;101686.94;2384295;28;45180;-84
2022/05/04 02:13:28;;;;;;;;;32.25;29.75;;;;;15.05;53.74;101679.94;2386783;28;46278;-84
2022/05/04 02:14:39;;;;;;;;;32.50;27.25;;;;;15.05;53.71;101682.59;2394226;28;45154;-84
2022/05/04 02:15:49;;;;;;;;;30.00;25.00;;;;;15.04;53.91;101683.50;2388520;28;47233;-84
2022/05/04 02:17:00;;;;;;;;;40.00;30.75;;;;;15.02;53.63;101685.34;2393376;28;45422;-84
2022/05/04 02:18:11;;;;;;;;;34.50;30.75;;;;;15.01;53.93;101691.56;2395305;28;46399;-88
2022/05/04 02:19:21;;;;;;;;;34.00;27.00;;;;;14.98;54.03;101683.72;2397672;28;45353;-91
2022/05/04 02:20:32;;;;;;;;;37.75;32.00;;;;;14.96;53.49;101690.88;2403597;28;45255;-90
2022/05/04 02:21:42;;;;;;;;;37.25;32.50;;;;;14.95;54.08;101683.84;2403087;28;45223;-91
2022/05/04 02:22:52;;;;;;;;;29.75;25.50;;;;;14.94;54.28;101693.56;2397158;28;45454;-91
2022/05/04 02:24:03;;;;;;;;;32.00;26.25;;;;;14.93;54.04;101696.25;2384390;28;45245;-90
2022/05/04 02:25:13;;;;;;;;;36.00;31.50;;;;;14.92;54.28;101683.94;2377279;28;47177;-92
2022/05/04 02:26:23;;;;;;;;;35.00;28.25;;;;;14.92;54.28;101684.81;2394816;28;45230;-90
2022/05/04 02:27:34;;;;;;;;;31.75;28.25;;;;;14.96;54.13;101693.50;2393273;28;48152;-91
2022/05/04 02:28:44;;;;;;;;;30.75;28.50;;;;;14.97;54.25;101689.94;2388036;28;45284;-92
2022/05/04 02:29:55;;;;;;;;;34.50;31.25;;;;;14.98;53.89;101683.72;2393581;28;47878;-80
2022/05/04 02:31:05;;;;;;;;;36.50;31.75;;;;;14.98;54.15;101675.78;2391021;28;45227;-80
2022/05/04 02:32:16;;;;;;;;;36.00;31.25;;;;;15.00;53.99;101678.38;2384960;28;47174;-80
2022/05/04 02:33:26;;;;;;;;;38.00;32.50;;;;;14.99;54.06;101671.38;2399378;28;45299;-81
2022/05/04 02:39:04;;;;;;;;;33.25;30.75;;;;;14.92;54.27;101668.06;2394064;28;44674;-86
2022/05/04 02:40:14;;;;;;;;;35.50;28.00;;;;;14.90;54.16;101675.19;2393872;28;46084;-85
2022/05/04 02:41:24;;;;;;;;;35.00;31.75;;;;;14.90;54.25;101675.19;2383982;28;45319;-85
2022/05/04 02:42:36;;;;;;;;;21.00;21.00;;;;;14.91;54.17;101676.94;2386960;28;46638;-86
2022/05/04 02:43:46;;;;;;;;;42.25;33.75;;;;;14.90;54.16;101675.19;2385888;28;44859;-86
2022/05/04 02:44:57;;;;;;;;;35.00;30.00;;;;;14.89;54.21;101673.47;2377070;28;47095;-85
2022/05/04 02:46:15;;;;;;;;;34.00;31.25;;;;;14.88;54.21;101669.09;2386717;28;44687;-84
2022/05/04 02:47:28;;;;;;;;;42.50;32.75;;;;;14.87;54.45;101670.00;2393930;28;45497;-85
2022/05/04 02:48:38;;;;;;;;;33.25;27.75;;;;;14.84;54.64;101670.97;2384654;28;44768;-86
2022/05/04 02:49:48;;;;;;;;;43.75;32.50;;;;;14.84;54.39;101671.81;2386396;28;46157;-85
2022/05/04 02:50:59;;;;;;;;;41.75;31.00;;;;;14.83;54.33;101671.88;2386949;28;45473;-86
2022/05/04 02:52:09;;;;;;;;;38.25;31.25;;;;;14.81;54.46;101671.94;2383791;28;47982;-87
2022/05/04 02:53:19;;;;;;;;;42.50;32.50;;;;;14.81;54.35;101665.78;2386512;28;45372;-87
2022/05/04 02:54:30;;;;;;;;;36.00;31.25;;;;;14.78;54.21;101671.19;2393801;28;45373;-86
2022/05/04 02:55:40;;;;;;;;;39.50;32.25;;;;;14.77;54.55;101664.16;2385217;28;45281;-86
2022/05/04 02:56:51;;;;;;;;;45.25;34.00;;;;;14.75;54.62;101661.56;2393249;28;45430;-85
2022/05/04 02:58:01;;;;;;;;;37.50;32.25;;;;;14.73;54.36;101666.06;2393782;28;45332;-86
2022/05/04 02:59:11;;;;;;;;;42.00;32.00;;;;;14.72;54.59;101666.97;2383578;28;48083;-89
2022/05/04 03:00:22;;;;;;;;;40.00;32.00;;;;;14.72;54.87;101667.81;2386447;28;44581;-88
2022/05/04 03:03:02;;;;;;;;;40.00;33.00;;;;;14.71;54.53;101665.25;2395969;28;45426;-89
2022/05/04 03:04:12;;;;;;;;;37.00;32.75;;;;;14.72;54.89;101661.66;2393019;28;46980;-88
2022/05/04 03:05:23;;;;;;;;;43.00;32.25;;;;;14.70;54.85;101656.44;2386423;28;44593;-90
2022/05/04 03:06:39;;;;;;;;;40.75;32.25;;;;;14.69;54.65;101661.81;2386293;28;47690;-89
2022/05/04 03:07:49;;;;;;;;;36.50;30.00;;;;;14.70;54.90;101661.72;2386697;28;45252;-88
2022/05/04 03:09:00;;;;;;;;;33.25;30.25;;;;;14.70;54.51;101659.09;2393937;28;45485;-89
2022/05/04 03:10:10;;;;;;;;;44.00;33.00;;;;;14.71;54.74;101655.53;2403136;28;45290;-83
2022/05/04 03:12:49;;;;;;;;;29.25;28.00;;;;;14.69;55.07;101657.34;2391414;28;45219;-83
2022/05/04 03:14:00;;;;;;;;;36.75;31.00;;;;;14.71;55.35;101650.25;2393619;28;46185;-83
2022/05/04 03:15:11;;;;;;;;;40.50;32.50;;;;;14.73;54.86;101658.13;2393597;28;45323;-82
2022/05/04 03:16:21;;;;;;;;;35.75;32.00;;;;;14.75;54.76;101664.22;2392026;28;47960;-83
2022/05/04 03:17:32;;;;;;;;;36.00;32.00;;;;;14.77;54.96;101654.44;2392028;28;45213;-83
2022/05/04 03:18:42;;;;;;;;;38.75;33.75;;;;;14.80;55.10;101664.03;2376944;28;48011;-82
2022/05/04 03:19:53;;;;;;;;;44.25;31.50;;;;;14.78;54.68;101655.31;2392784;28;45330;-82
2022/05/04 03:21:03;;;;;;;;;37.00;34.00;;;;;14.78;54.39;101652.66;2398449;28;45421;-84
2022/05/04 03:22:14;;;;;;;;;40.50;34.25;;;;;14.81;54.96;101644.63;2393712;28;45278;-86
2022/05/04 03:23:24;;;;;;;;;41.75;32.25;;;;;14.81;54.48;101647.25;2392220;28;47188;-85
2022/05/04 03:24:35;;;;;;;;;39.75;31.75;;;;;14.80;54.56;101648.16;2383577;28;45232;-85
2022/05/04 03:25:45;;;;;;;;;38.25;32.75;;;;;14.82;54.47;101657.78;2385926;28;45532;-85
2022/05/04 03:26:55;;;;;;;;;42.00;32.50;;;;;14.81;54.82;101648.13;2393779;28;44618;-85
2022/05/04 03:28:06;;;;;;;;;38.25;29.25;;;;;14.82;55.07;101644.53;2393366;28;45306;-85
2022/05/04 03:29:16;;;;;;;;;45.50;33.00;;;;;14.81;54.64;101656.06;2383593;28;45526;-85
2022/05/04 03:30:27;;;;;;;;;36.25;31.00;;;;;14.83;54.57;101653.34;2385553;28;47743;-85
2022/05/04 03:31:37;;;;;;;;;44.50;33.50;;;;;14.81;54.63;101650.78;2400577;28;45443;-86
2022/05/04 03:32:47;;;;;;;;;33.25;30.00;;;;;14.80;54.68;101656.97;2401527;28;45343;-86
2022/05/04 03:33:58;;;;;;;;;35.25;31.25;;;;;14.78;54.60;101655.31;2410346;28;45473;-85
2022/05/04 03:35:09;;;;;;;;;39.00;32.50;;;;;14.74;54.56;101651.91;2398608;28;45468;-83
2022/05/04 03:36:19;;;;;;;;;36.25;30.75;;;;;14.73;54.96;101653.69;2383499;28;45438;-84
2022/05/04 03:37:29;;;;;;;;;38.50;31.75;;;;;14.73;54.86;101650.19;2386235;28;46341;-84
2022/05/04 03:38:40;;;;;;;;;47.75;35.00;;;;;14.75;54.81;101656.28;2392030;28;45369;-84
2022/05/04 03:39:50;;;;;;;;;30.75;29.50;;;;;14.73;54.48;101655.47;2385416;28;47066;-85
2022/05/04 03:41:01;;;;;;;;;31.50;27.50;;;;;14.74;55.14;101654.56;2390958;28;45251;-84
2022/05/04 03:42:12;;;;;;;;;36.50;31.25;;;;;14.71;54.83;101646.72;2393412;28;46049;-85
2022/05/04 03:43:22;;;;;;;;;39.75;32.00;;;;;14.72;54.67;101648.44;2399419;28;45294;-83
2022/05/04 03:44:32;;;;;;;;;42.25;34.00;;;;;14.70;54.47;101650.28;2392777;28;47184;-83
2022/05/04 03:45:43;;;;;;;;;35.00;29.25;;;;;14.66;54.97;101648.66;2395511;28;45391;-83
2022/05/04 03:46:53;;;;;;;;;42.50;29.50;;;;;14.64;54.97;101640.81;2400840;28;45457;-83
2022/05/04 03:48:04;;;;;;;;;40.75;32.75;;;;;14.63;55.12;101637.28;2402335;28;45420;-84
2022/05/04 03:49:16;;;;;;;;;38.75;31.75;;;;;14.63;54.95;101637.28;2402639;28;46600;-84
2022/05/04 03:50:26;;;;;;;;;31.00;24.75;;;;;14.65;55.23;101637.22;2387169;28;45277;-84
2022/05/04 03:51:37;;;;;;;;;35.25;31.25;;;;;14.68;54.94;101641.53;2378400;28;48296;-85
2022/05/04 03:52:48;;;;;;;;;41.00;31.75;;;;;14.67;54.79;101647.78;2392881;28;45383;-84
2022/05/04 03:53:58;;;;;;;;;41.25;31.50;;;;;14.68;54.97;101634.47;2385599;28;47960;-83
2022/05/04 03:55:08;;;;;;;;;36.50;29.25;;;;;14.70;54.62;101640.56;2385783;28;45269;-84
2022/05/04 03:56:20;;;;;;;;;42.75;32.00;;;;;14.70;54.80;101643.22;2394695;28;45282;-83
2022/05/04 03:57:30;;;;;;;;;40.00;31.25;;;;;14.71;54.49;101644.09;2392746;28;45361;-83
2022/05/04 03:58:41;;;;;;;;;47.25;33.75;;;;;14.69;54.70;101643.28;2396842;28;46984;-84
2022/05/04 03:59:51;;;;;;;;;40.50;33.75;;;;;14.70;54.89;101650.28;2385860;28;45280;-83
2022/05/04 04:01:02;;;;;;;;;37.75;33.00;;;;;14.68;54.89;101652.13;2385746;28;47296;-84
2022/05/04 04:02:13;;;;;;;;;41.00;33.50;;;;;14.67;54.81;101650.41;2395441;28;45319;-84
2022/05/04 04:03:24;;;;;;;;;43.00;32.50;;;;;14.65;54.92;101654.88;2397477;28;45183;-82
2022/05/04 04:04:34;;;;;;;;;45.00;33.75;;;;;14.65;55.05;101654.88;2393387;28;44625;-82
2022/05/04 04:05:44;;;;;;;;;32.75;31.00;;;;;14.62;54.83;101648.78;2393319;28;45224;-83
2022/05/04 04:06:55;;;;;;;;;43.75;34.25;;;;;14.61;54.64;101648.84;2393354;28;45497;-83
2022/05/04 04:08:05;;;;;;;;;45.50;32.75;;;;;14.61;54.83;101651.47;2395148;28;45311;-83
2022/05/04 04:09:16;;;;;;;;;35.00;28.75;;;;;14.59;55.08;101648.88;2391863;28;44724;-83
2022/05/04 04:10:26;;;;;;;;;46.75;34.25;;;;;14.58;54.79;101647.16;2395290;28;45372;-83
2022/05/04 04:11:37;;;;;;;;;40.00;29.00;;;;;14.56;55.08;101646.38;2402061;28;45338;-83
2022/05/04 04:12:47;;;;;;;;;42.00;33.50;;;;;14.57;55.16;101655.16;2396767;28;46505;-82
2022/05/04 04:13:59;;;;;;;;;43.25;33.25;;;;;14.54;55.10;101648.19;2393308;28;44657;-84
2022/05/04 04:15:09;;;;;;;;;36.25;32.75;;;;;14.53;54.90;101643.81;2382710;28;47359;-82
2022/05/04 04:16:19;;;;;;;;;44.25;35.00;;;;;14.50;55.01;101651.84;2390959;28;44644;-87
2022/05/04 04:17:30;;;;;;;;;37.75;31.00;;;;;14.46;55.18;101656.41;2393067;28;45506;-83
2022/05/04 04:18:41;;;;;;;;;47.50;34.00;;;;;14.43;55.06;101661.78;2399157;28;45260;-84
2022/05/04 04:21:50;;;;;;;;;43.50;33.25;;;;;14.42;55.25;101660.03;2402685;28;45354;-84
2022/05/04 04:22:50;;;;;;;;;42.00;33.00;;;;;14.40;55.42;101656.59;2402200;28;45417;-82
2022/05/04 04:24:01;;;;;;;;;40.75;33.25;;;;;14.40;55.21;101651.31;2398100;28;45239;-82
2022/05/04 04:25:11;;;;;;;;;44.25;32.25;;;;;14.37;55.29;101651.44;2392997;28;45384;-82
2022/05/04 04:26:21;;;;;;;;;42.50;34.00;;;;;14.35;55.28;101659.41;2383076;28;45475;-80
2022/05/04 04:27:33;;;;;;;;;39.75;34.75;;;;;14.33;55.29;101650.66;2385914;28;46069;-80
2022/05/04 04:28:44;;;;;;;;;39.50;32.00;;;;;14.33;54.95;101658.59;2398750;28;45253;-80
2022/05/04 04:29:54;;;;;;;;;35.50;32.75;;;;;14.31;55.30;101657.78;2401774;28;45225;-80
2022/05/04 04:31:09;;;;;;;;;42.25;33.00;;;;;14.29;55.47;101663.13;2390193;28;44629;-79
2022/05/04 04:32:19;;;;;;;;;39.25;30.00;;;;;14.30;55.04;101666.63;2392567;28;45481;-79
2022/05/04 04:33:30;;;;;;;;;35.00;31.00;;;;;14.30;55.75;101661.34;2399736;28;44795;-79
2022/05/04 04:34:40;;;;;;;;;41.00;34.25;;;;;14.26;55.36;101660.59;2392965;28;46645;-79
2022/05/04 04:35:51;;;;;;;;;39.25;32.25;;;;;14.27;55.56;101664.09;2393046;28;45190;-79
2022/05/04 04:37:01;;;;;;;;;43.25;34.00;;;;;14.26;55.23;101662.38;2393206;28;45321;-79
2022/05/04 04:38:12;;;;;;;;;30.00;22.25;;;;;14.25;55.30;101671.19;2382984;28;45302;-84
2022/05/04 04:39:22;;;;;;;;;43.25;32.00;;;;;14.21;55.04;101666.94;2385734;28;45382;-84
2022/05/04 04:40:33;;;;;;;;;39.50;31.75;;;;;14.21;54.96;101666.94;2384680;28;44803;-82
2022/05/04 04:41:44;;;;;;;;;36.75;31.50;;;;;14.23;55.46;101665.09;2393657;28;46447;-81
2022/05/04 04:42:55;;;;;;;;;43.00;34.00;;;;;14.21;55.27;101667.81;2402490;28;44560;-80
2022/05/04 04:44:05;;;;;;;;;41.75;31.75;;;;;14.20;55.25;101668.72;2401457;28;45419;-85
2022/05/04 04:45:17;;;;;;;;;38.00;34.00;;;;;14.17;55.07;101666.19;2384175;28;45242;-88
2022/05/04 04:46:29;;;;;;;;;43.00;32.50;;;;;14.15;55.51;101668.00;2391184;28;47319;-88
2022/05/04 04:47:39;;;;;;;;;43.00;34.00;;;;;14.12;55.33;101662.84;2393675;28;45201;-88
2022/05/04 04:48:50;;;;;;;;;35.00;30.00;;;;;14.11;55.61;101672.53;2396843;28;45340;-84
2022/05/04 04:50:00;;;;;;;;;40.00;32.25;;;;;14.11;55.57;101667.25;2394015;28;45315;-83
2022/05/04 04:51:11;;;;;;;;;37.25;30.75;;;;;14.11;55.58;101667.25;2386813;28;47229;-83
2022/05/04 04:52:21;;;;;;;;;31.25;28.25;;;;;14.11;55.51;101667.25;2396875;28;45276;-82
2022/05/04 04:53:31;;;;;;;;;41.25;33.00;;;;;14.12;55.55;101669.00;2404168;28;45424;-87
2022/05/04 04:54:42;;;;;;;;;37.25;31.75;;;;;14.13;55.48;101669.84;2393946;28;45183;-85
2022/05/04 04:55:53;;;;;;;;;43.75;34.50;;;;;14.14;55.62;101672.44;2387234;28;47536;-85
2022/05/04 04:57:04;;;;;;;;;37.50;32.00;;;;;14.15;55.63;101674.16;2390469;28;45240;-87
2022/05/04 04:58:14;;;;;;;;;38.50;30.50;;;;;14.15;55.79;101675.94;2387102;28;46946;-82
2022/05/04 04:59:25;;;;;;;;;35.00;32.25;;;;;14.17;55.50;101677.59;2387330;28;44639;-82
2022/05/04 05:00:35;;;;;;;;;36.00;30.25;;;;;14.19;55.08;101672.28;2394756;28;45530;-86
2022/05/04 05:01:45;;;;;;;;;43.25;30.00;;;;;14.21;55.28;101677.50;2394478;28;45203;-85
2022/05/04 05:02:56;;;;;;;;;41.25;30.00;;;;;14.20;55.54;101679.28;2394504;28;45483;-85
2022/05/04 05:04:06;;;;;;;;;41.00;33.00;;;;;14.22;55.32;101673.97;2394890;28;44822;-85
2022/05/04 05:05:17;;;;;;;;;40.50;34.75;;;;;14.24;55.52;101683.59;2394384;28;45369;-87
2022/05/04 05:06:30;;;;;;;;;34.50;32.00;;;;;14.23;55.34;101680.97;2394654;28;45227;-85
2022/05/04 05:07:40;;;;;;;;;41.75;30.00;;;;;14.23;55.45;101678.31;2384405;28;47260;-85
2022/05/04 05:08:50;;;;;;;;;32.50;25.50;;;;;14.22;55.37;101684.53;2387290;28;45252;-85
2022/05/04 05:10:01;;;;;;;;;38.25;30.50;;;;;14.18;55.33;101679.34;2393801;28;45508;-84
2022/05/04 05:11:11;;;;;;;;;37.75;26.75;;;;;14.20;55.39;101683.75;2400558;28;45190;-84
2022/05/04 05:12:22;;;;;;;;;30.00;29.00;;;;;14.19;55.38;101682.88;2393800;28;47211;-84
2022/05/04 05:16:06;;;;;;;;;38.00;30.75;;;;;14.18;55.31;101678.47;2387113;28;45290;-84
2022/05/04 05:16:32;;;;;;;;;37.50;29.25;;;;;14.15;55.29;101682.09;2396259;28;45440;-85
2022/05/04 05:17:43;;;;;;;;;36.00;32.00;;;;;14.14;55.31;101682.16;2399181;28;47623;-85
2022/05/04 05:18:53;;;;;;;;;39.25;32.75;;;;;14.13;55.59;101688.34;2401332;28;45258;-85
2022/05/04 05:20:04;;;;;;;;;42.25;34.00;;;;;14.09;55.69;101689.38;2389533;28;47934;-85
2022/05/04 05:21:14;;;;;;;;;35.75;33.00;;;;;14.10;55.32;101696.41;2395728;28;45358;-85
2022/05/04 05:22:25;;;;;;;;;41.00;30.00;;;;;14.07;55.37;101694.72;2402363;28;48185;-84
2022/05/04 05:23:35;;;;;;;;;39.50;33.25;;;;;14.05;55.77;101694.75;2391824;28;45263;-84
2022/05/04 05:24:46;;;;;;;;;36.00;29.75;;;;;14.06;55.39;101693.84;2384700;28;47612;-84
2022/05/04 05:25:57;;;;;;;;;35.50;30.25;;;;;14.06;56.08;101692.97;2393259;28;45357;-84
2022/05/04 05:27:08;;;;;;;;;38.50;32.50;;;;;14.06;55.73;101691.19;2395669;28;47258;-84
2022/05/04 05:28:19;;;;;;;;;41.25;34.00;;;;;14.06;55.64;101691.19;2388113;28;45239;-84
2022/05/04 05:29:30;;;;;;;;;32.75;30.50;;;;;14.06;55.77;101692.97;2393085;28;47847;-84
2022/05/04 05:30:42;;;;;;;;;42.75;36.00;;;;;14.04;55.31;101687.75;2391508;28;45301;-85
2022/05/04 05:31:52;;;;;;;;;38.25;29.75;;;;;14.05;55.52;101692.09;2385917;28;46533;-83
2022/05/04 05:33:03;;;;;;;;;32.25;25.50;;;;;14.06;55.39;101688.56;2395920;28;45254;-84
2022/05/04 05:34:13;;;;;;;;;43.75;31.75;;;;;14.06;55.40;101698.25;2399439;28;45420;-83
2022/05/04 05:35:23;;;;;;;;;36.00;29.00;;;;;14.07;55.41;101692.06;2399905;28;45223;-83